KDPG/DPG METAR and TAF weather

Enter ICAO airport designator
Station Type Date Time Source
KDPG METAR 2021/03/05 00:00 UTC NOAA

KDPG 050000Z 18009KT 45SM FEW060 FEW200 13/M01 A3023 RMK SLP217 T01311012 10148 20087 53014 LAST


Station Type Date Time Source
KDPG Decoded METAR 2021/03/05 00:00 UTC NOAA

Dugway Proving Grounds, UT, United States (KDPG) 40-10N 112-56W 1325M
Mar 04, 2021 - 07:00 PM EST / 2021.03.05 0000 UTC
Wind: from the S (180 degrees) at 10 MPH (9 KT):0
Visibility: 45 mile(s):0
Sky conditions: mostly clear
Temperature: 55.6 F (13.1 C)
Dew Point: 29.8 F (-1.2 C)
Relative Humidity: 37%
Pressure (altimeter): 30.23 in. Hg (1023 hPa)
Pressure tendency: 0.04 inches (1.4 hPa) higher than three hours ago
ob: KDPG 050000Z 18009KT 45SM FEW060 FEW200 13/M01 A3023 RMK SLP217 T01311012 10148 20087 53014 LAST
cycle: 0

Station Type Date Time Source
KDPG TAF UTC NOAA

Error!

Example: see airport list